Time;durP1;ratioP1;P1;durP2;ratioP2;P2;SDS_P1;SDS_P2;PMS_P1;PMS_P2;Temp;Humidity;BMP_temperature;BMP_pressure;BME280_temperature;BME280_humidity;BME280_pressure;Samples;Min_cycle;Max_cycle;Signal;HPM_P1;HPM_P2
2022/06/13 00:04:34;;;;;;;2.50;1.80;;;25.70;56.70;;;;;;220186;1270;25155;-53
2022/06/13 00:09:41;;;;;;;4.10;1.90;;;25.70;56.60;;;;;;220105;1271;23031;-53
2022/06/13 00:14:56;;;;;;;2.40;1.80;;;25.70;56.70;;;;;;220093;1271;25446;-54
2022/06/13 00:20:02;;;;;;;2.40;1.60;;;25.70;56.70;;;;;;220185;1270;22686;-54
2022/06/13 00:25:23;;;;;;;2.00;1.70;;;25.70;56.80;;;;;;220260;1270;24326;-56
2022/06/13 00:30:33;;;;;;;2.70;1.90;;;25.70;56.70;;;;;;220296;1270;25274;-55
2022/06/13 00:35:48;;;;;;;;;;;25.70;57.30;;;;;;220152;1270;24317;-58
2022/06/13 00:41:00;;;;;;;2.30;1.80;;;25.60;56.70;;;;;;220161;1270;24308;-58
2022/06/13 00:46:25;;;;;;;2.50;1.80;;;25.60;56.70;;;;;;220091;1270;22556;-59
2022/06/13 00:51:37;;;;;;;2.80;1.70;;;25.70;56.90;;;;;;220182;1270;22576;-54
2022/06/13 00:56:54;;;;;;;3.20;2.00;;;25.60;56.80;;;;;;220221;1270;22752;-52
2022/06/13 01:02:00;;;;;;;2.50;1.80;;;25.60;56.80;;;;;;220177;1270;24225;-59
2022/06/13 01:07:48;;;;;;;2.70;1.60;;;25.60;56.80;;;;;;220213;1270;22559;-56
2022/06/13 01:12:55;;;;;;;2.40;1.50;;;25.60;56.80;;;;;;220092;1273;22711;-54
2022/06/13 01:18:36;;;;;;;2.20;1.70;;;25.60;56.80;;;;;;217802;1270;3229884;-55
2022/06/13 01:24:15;;;;;;;2.00;1.50;;;25.60;56.90;;;;;;220179;1271;24319;-55
2022/06/13 01:29:47;;;;;;;3.10;1.70;;;25.50;56.80;;;;;;220051;1270;26512;-58
2022/06/13 01:35:28;;;;;;;2.30;1.90;;;25.60;56.30;;;;;;220209;1270;23176;-52
2022/06/13 01:41:13;;;;;;;2.50;1.80;;;25.60;56.90;;;;;;220049;1270;24457;-55
2022/06/13 01:46:48;;;;;;;2.10;1.60;;;25.60;56.90;;;;;;220236;1270;22706;-56
2022/06/13 01:52:28;;;;;;;2.40;1.70;;;25.50;56.80;;;;;;220104;1270;22558;-55
2022/06/13 01:58:03;;;;;;;2.90;1.70;;;25.50;56.80;;;;;;220151;1270;22657;-53
2022/06/13 02:03:39;;;;;;;3.00;1.90;;;25.50;56.80;;;;;;220216;1270;22658;-57
2022/06/13 02:08:52;;;;;;;2.30;1.80;;;25.50;56.90;;;;;;219942;1271;24238;-56
2022/06/13 02:14:18;;;;;;;2.30;1.70;;;25.60;56.90;;;;;;219837;1271;22638;-54
2022/06/13 02:19:31;;;;;;;2.70;1.80;;;25.50;56.90;;;;;;220046;1271;24437;-54
2022/06/13 02:24:51;;;;;;;3.10;1.80;;;25.50;56.90;;;;;;219973;1272;23085;-56
2022/06/13 02:29:57;;;;;;;1.90;1.60;;;25.50;57.00;;;;;;220127;1270;24444;-53
2022/06/13 02:35:17;;;;;;;3.00;1.80;;;25.50;57.00;;;;;;220064;1271;22566;-57
2022/06/13 02:40:34;;;;;;;2.10;1.60;;;25.50;56.90;;;;;;220181;1270;24449;-55
2022/06/13 02:45:45;;;;;;;2.50;1.60;;;25.40;56.80;;;;;;220266;1271;23923;-55
2022/06/13 02:50:54;;;;;;;2.40;1.70;;;25.50;57.20;;;;;;219981;1271;22578;-54
2022/06/13 02:56:02;;;;;;;2.00;1.50;;;25.50;57.00;;;;;;220164;1270;26202;-53
2022/06/13 03:01:12;;;;;;;2.30;1.70;;;25.40;56.90;;;;;;219793;1271;25357;-55
2022/06/13 03:06:26;;;;;;;2.30;1.70;;;25.40;57.20;;;;;;220037;1271;22554;-54
2022/06/13 03:11:57;;;;;;;2.20;1.60;;;25.40;56.90;;;;;;220089;1270;22712;-60
2022/06/13 03:17:10;;;;;;;;;;;25.40;57.00;;;;;;220141;1273;25485;-54
2022/06/13 03:22:32;;;;;;;2.60;1.70;;;25.40;57.40;;;;;;219942;1271;22567;-55
2022/06/13 03:27:45;;;;;;;2.30;1.80;;;25.40;57.00;;;;;;220065;1273;22553;-54
2022/06/13 03:38:27;;;;;;;2.60;1.90;;;25.40;57.10;;;;;;219825;1273;22708;-55
2022/06/13 03:43:51;;;;;;;2.30;1.70;;;25.40;57.10;;;;;;219946;1270;25264;-53
2022/06/13 03:48:59;;;;;;;2.40;1.60;;;25.40;57.00;;;;;;219983;1273;25706;-55
2022/06/13 03:54:15;;;;;;;2.30;1.60;;;25.40;57.00;;;;;;220061;1272;24455;-56
2022/06/13 03:59:26;;;;;;;2.10;1.80;;;25.40;57.00;;;;;;220148;1270;22573;-60
2022/06/13 04:04:35;;;;;;;2.30;1.60;;;25.40;56.90;;;;;;220021;1273;24299;-59
2022/06/13 04:09:43;;;;;;;2.10;1.70;;;25.40;56.90;;;;;;220074;1270;24384;-55
2022/06/13 04:15:11;;;;;;;2.40;1.80;;;25.40;56.90;;;;;;220181;1270;22756;-55
2022/06/13 04:20:18;;;;;;;2.70;2.00;;;25.40;57.10;;;;;;220140;1270;22723;-54
2022/06/13 04:25:26;;;;;;;2.10;1.80;;;25.40;57.00;;;;;;220015;1271;26513;-54
2022/06/13 04:30:32;;;;;;;2.20;1.60;;;25.40;57.30;;;;;;220056;1270;24323;-54
2022/06/13 04:35:35;;;;;;;2.60;1.80;;;25.40;56.90;;;;;;220046;1270;25229;-54
2022/06/13 04:40:43;;;;;;;3.60;1.90;;;25.30;56.90;;;;;;220074;1270;25398;-57
2022/06/13 04:46:04;;;;;;;2.50;1.70;;;25.40;56.90;;;;;;220213;1270;23074;-54
2022/06/13 04:51:19;;;;;;;2.90;1.90;;;25.30;56.80;;;;;;220007;1270;22724;-55
2022/06/13 04:56:23;;;;;;;2.30;1.70;;;25.30;56.80;;;;;;220035;1270;26512;-54
2022/06/13 05:01:42;;;;;;;2.70;1.60;;;25.30;57.10;;;;;;220300;1271;22557;-56
2022/06/13 05:06:50;;;;;;;2.50;1.80;;;25.40;56.80;;;;;;220192;1270;24305;-55
2022/06/13 05:12:10;;;;;;;2.50;1.80;;;25.40;56.90;;;;;;220403;1270;24915;-57
2022/06/13 05:17:47;;;;;;;1.80;1.50;;;25.30;56.80;;;;;;220244;1270;26517;-53
2022/06/13 05:23:33;;;;;;;2.70;1.90;;;25.40;56.70;;;;;;220171;1270;22566;-57
2022/06/13 05:28:36;;;;;;;2.10;1.60;;;25.30;56.70;;;;;;219866;1273;22543;-54
2022/06/13 05:33:41;;;;;;;2.10;1.60;;;25.40;57.30;;;;;;220265;1270;25423;-55
2022/06/13 05:38:47;;;;;;;2.40;1.60;;;25.40;57.10;;;;;;220329;1270;22571;-56
2022/06/13 05:43:53;;;;;;;2.50;1.70;;;25.40;56.70;;;;;;220100;1271;22563;-54
2022/06/13 05:48:55;;;;;;;2.10;1.70;;;25.40;56.70;;;;;;219985;1270;22619;-54
2022/06/13 05:53:58;;;;;;;2.20;1.60;;;25.40;56.80;;;;;;220298;1270;25330;-54
2022/06/13 05:59:04;;;;;;;2.30;1.50;;;25.30;56.80;;;;;;220237;1270;22590;-55
2022/06/13 06:04:13;;;;;;;2.40;1.80;;;25.40;56.80;;;;;;220244;1270;22623;-56
2022/06/13 06:09:16;;;;;;;2.50;1.80;;;25.30;56.60;;;;;;220214;1270;24366;-56
2022/06/13 06:14:18;;;;;;;2.60;1.80;;;25.40;56.80;;;;;;220215;1270;24330;-55
2022/06/13 06:19:22;;;;;;;2.70;1.70;;;25.30;56.70;;;;;;219976;1270;25418;-53
2022/06/13 06:24:26;;;;;;;2.20;1.80;;;25.30;56.30;;;;;;220193;1270;24506;-54
2022/06/13 06:29:29;;;;;;;2.20;1.70;;;25.30;56.70;;;;;;220173;1270;24430;-53
2022/06/13 06:34:37;;;;;;;2.10;1.60;;;25.40;56.80;;;;;;219969;1271;22715;-55
2022/06/13 06:39:39;;;;;;;2.30;1.60;;;25.40;56.80;;;;;;220145;1271;22648;-54
2022/06/13 06:44:46;;;;;;;2.30;1.70;;;25.40;57.10;;;;;;219953;1270;24611;-55
2022/06/13 06:49:48;;;;;;;2.50;1.80;;;25.40;56.80;;;;;;220052;1270;22561;-60
2022/06/13 07:00:12;;;;;;;2.20;1.70;;;25.30;56.70;;;;;;220261;1270;22541;-56
2022/06/13 07:05:15;;;;;;;2.10;1.60;;;25.40;56.80;;;;;;220232;1270;22721;-55
2022/06/13 07:10:17;;;;;;;2.60;1.60;;;25.40;56.80;;;;;;220131;1270;24305;-56
2022/06/13 07:15:20;;;;;;;2.30;1.60;;;25.40;56.90;;;;;;220011;1270;24413;-56
2022/06/13 07:20:22;;;;;;;2.20;1.60;;;25.40;56.90;;;;;;220144;1270;22553;-58
2022/06/13 07:25:31;;;;;;;2.40;1.70;;;25.40;56.80;;;;;;220053;1270;25276;-54
2022/06/13 07:30:34;;;;;;;2.30;1.60;;;25.40;56.80;;;;;;220262;1270;22563;-54
2022/06/13 07:35:39;;;;;;;2.50;1.80;;;25.40;56.80;;;;;;220157;1271;22713;-57
2022/06/13 07:40:57;;;;;;;2.80;1.80;;;25.40;56.80;;;;;;220107;1270;22817;-54
2022/06/13 07:46:03;;;;;;;2.30;1.80;;;25.40;56.70;;;;;;220138;1270;24218;-56
2022/06/13 07:51:07;;;;;;;2.40;1.60;;;25.40;56.70;;;;;;220346;1270;22656;-53
2022/06/13 07:56:15;;;;;;;3.40;1.80;;;25.40;56.80;;;;;;220380;1270;24232;-58
2022/06/13 08:01:19;;;;;;;2.40;1.80;;;25.40;56.80;;;;;;220116;1270;22547;-54
2022/06/13 08:06:23;;;;;;;2.00;1.50;;;25.40;56.60;;;;;;220144;1271;25271;-53
2022/06/13 08:11:35;;;;;;;1.90;1.50;;;25.40;56.80;;;;;;220049;1270;22820;-56
2022/06/13 08:16:38;;;;;;;2.10;1.70;;;25.40;56.70;;;;;;220176;1272;22715;-56
2022/06/13 08:21:42;;;;;;;1.90;1.60;;;25.50;56.60;;;;;;220041;1270;22575;-54
2022/06/13 08:26:48;;;;;;;2.50;1.80;;;25.50;56.60;;;;;;220055;1270;23924;-55
2022/06/13 08:31:50;;;;;;;2.10;1.70;;;25.50;56.90;;;;;;220349;1270;22548;-54
2022/06/13 08:36:53;;;;;;;4.10;1.80;;;25.50;56.60;;;;;;220222;1270;22719;-56
2022/06/13 08:42:05;;;;;;;1.90;1.50;;;25.50;56.70;;;;;;220155;1270;22565;-56
2022/06/13 08:47:33;;;;;;;2.20;1.60;;;25.50;56.60;;;;;;219990;1270;24236;-57
2022/06/13 08:52:54;;;;;;;2.50;1.60;;;25.50;56.80;;;;;;220161;1270;24228;-55
2022/06/13 08:58:03;;;;;;;2.30;1.40;;;25.50;56.90;;;;;;220217;1270;22537;-53
2022/06/13 09:03:11;;;;;;;2.70;1.70;;;25.50;57.00;;;;;;220098;1270;22543;-53
2022/06/13 09:08:31;;;;;;;2.40;1.60;;;25.40;56.80;;;;;;219971;1270;25319;-55
2022/06/13 09:13:42;;;;;;;2.70;1.70;;;25.40;56.80;;;;;;219960;1271;22541;-55
2022/06/13 09:19:03;;;;;;;1.90;1.60;;;25.40;56.80;;;;;;220248;1271;22727;-55
2022/06/13 09:24:41;;;;;;;2.50;1.80;;;25.40;56.80;;;;;;220155;1270;24385;-53
2022/06/13 09:30:01;;;;;;;2.50;1.80;;;25.40;56.80;;;;;;220082;1270;25643;-54
2022/06/13 09:35:18;;;;;;;2.60;2.00;;;25.40;56.90;;;;;;220244;1270;22686;-55
2022/06/13 09:40:46;;;;;;;2.20;1.80;;;25.40;56.80;;;;;;220156;1271;22560;-56
2022/06/13 09:46:10;;;;;;;2.30;1.70;;;25.40;56.80;;;;;;219899;1271;24392;-55
2022/06/13 09:51:39;;;;;;;2.10;1.80;;;25.40;56.80;;;;;;220221;1270;22560;-55
2022/06/13 09:57:05;;;;;;;2.70;2.00;;;25.40;56.90;;;;;;220299;1270;22541;-54
2022/06/13 10:02:16;;;;;;;4.30;2.10;;;25.40;57.10;;;;;;220122;1271;26565;-55
2022/06/13 10:07:27;;;;;;;2.50;1.80;;;25.40;56.60;;;;;;220016;1271;22555;-56
2022/06/13 10:12:50;;;;;;;2.00;1.60;;;25.40;57.10;;;;;;220241;1271;22589;-56
2022/06/13 10:18:33;;;;;;;2.50;1.80;;;25.40;57.10;;;;;;220328;1270;25539;-54
2022/06/13 10:23:51;;;;;;;2.40;1.90;;;25.30;57.10;;;;;;220083;1271;24333;-55
2022/06/13 10:29:00;;;;;;;2.40;1.90;;;25.40;57.10;;;;;;219770;1271;24281;-54
2022/06/13 10:34:18;;;;;;;3.20;2.00;;;25.40;57.40;;;;;;220321;1271;24306;-55
2022/06/13 10:39:24;;;;;;;3.10;1.90;;;25.40;57.00;;;;;;220122;1270;22556;-55
2022/06/13 10:44:26;;;;;;;2.90;2.00;;;25.40;56.90;;;;;;219758;1272;22580;-57
2022/06/13 10:49:43;;;;;;;2.40;1.80;;;25.40;56.90;;;;;;219940;1271;22637;-53
2022/06/13 10:54:59;;;;;;;2.20;1.60;;;25.40;56.90;;;;;;219901;1271;24310;-55
2022/06/13 11:00:24;;;;;;;2.30;1.80;;;25.40;56.90;;;;;;219885;1271;25374;-54
2022/06/13 11:05:27;;;;;;;2.30;1.80;;;25.40;57.10;;;;;;220223;1271;22551;-54
2022/06/13 11:10:41;;;;;;;2.40;1.90;;;25.40;56.80;;;;;;219982;1271;22541;-58
2022/06/13 11:32:25;;;;;;;3.40;2.30;;;25.40;56.90;;;;;;219959;1271;22555;-56
2022/06/13 11:37:27;;;;;;;3.30;1.90;;;25.40;56.90;;;;;;220028;1271;24438;-58
2022/06/13 11:42:33;;;;;;;2.60;1.80;;;25.40;56.90;;;;;;220126;1270;23194;-56
2022/06/13 11:47:45;;;;;;;2.90;2.00;;;25.40;56.90;;;;;;219978;1274;22573;-55
2022/06/13 11:58:21;;;;;;;3.20;1.90;;;25.40;57.30;;;;;;220072;1274;22561;-55
2022/06/13 12:03:27;;;;;;;2.70;2.00;;;25.40;56.90;;;;;;219774;1271;24700;-55
2022/06/13 12:08:32;;;;;;;2.80;1.80;;;25.40;57.00;;;;;;220128;1270;25324;-54
2022/06/13 12:13:39;;;;;;;2.30;1.80;;;25.40;57.00;;;;;;219455;1271;22547;-54
2022/06/13 12:18:52;;;;;;;2.40;1.50;;;25.40;56.80;;;;;;220174;1271;24275;-57
2022/06/13 12:24:08;;;;;;;2.90;2.10;;;25.40;57.00;;;;;;220154;1270;22571;-55
2022/06/13 12:29:27;;;;;;;3.10;2.00;;;25.40;56.90;;;;;;220232;1271;26637;-54
2022/06/13 12:34:56;;;;;;;2.90;1.90;;;25.40;57.40;;;;;;219980;1271;25465;-55
2022/06/13 12:40:15;;;;;;;2.90;2.00;;;25.40;57.40;;;;;;219956;1271;22547;-55
2022/06/13 12:46:05;;;;;;;2.70;2.00;;;25.40;57.00;;;;;;220204;1271;23937;-56
2022/06/13 12:51:28;;;;;;;2.30;1.80;;;25.40;57.00;;;;;;219844;1271;22575;-53
2022/06/13 12:56:39;;;;;;;2.60;1.90;;;25.40;57.00;;;;;;219716;1276;25357;-56
2022/06/13 13:01:45;;;;;;;2.30;1.80;;;25.40;57.30;;;;;;220088;1271;24441;-56
2022/06/13 13:06:55;;;;;;;2.60;1.70;;;25.40;57.00;;;;;;220002;1271;22549;-58
2022/06/13 13:12:18;;;;;;;2.20;1.80;;;25.40;57.00;;;;;;220054;1271;22566;-56
2022/06/13 13:17:40;;;;;;;2.90;1.90;;;25.40;57.30;;;;;;219842;1274;398859;-55
2022/06/13 13:23:09;;;;;;;2.50;1.90;;;25.40;57.40;;;;;;220005;1270;26872;-53
2022/06/13 13:28:33;;;;;;;;;;;25.40;57.10;;;;;;220239;1270;24359;-54
2022/06/13 13:34:07;;;;;;;2.70;2.00;;;25.40;57.00;;;;;;219841;1271;22536;-54
2022/06/13 13:39:18;;;;;;;2.60;1.90;;;25.40;56.90;;;;;;220139;1271;22594;-56
2022/06/13 13:44:33;;;;;;;2.10;1.80;;;25.40;56.80;;;;;;220047;1270;24256;-57
2022/06/13 13:49:44;;;;;;;2.80;1.80;;;25.50;56.80;;;;;;219971;1270;22694;-52
2022/06/13 13:54:56;;;;;;;2.60;1.60;;;25.50;56.70;;;;;;220046;1272;26507;-55
2022/06/13 14:00:16;;;;;;;2.50;1.90;;;25.50;57.10;;;;;;220056;1271;24336;-58
2022/06/13 14:05:30;;;;;;;2.70;1.90;;;25.50;56.70;;;;;;220081;1271;25482;-56
2022/06/13 14:10:36;;;;;;;2.70;1.90;;;25.50;56.70;;;;;;220263;1270;24312;-59
2022/06/13 14:16:02;;;;;;;3.20;1.90;;;25.50;56.70;;;;;;219978;1271;22567;-56
2022/06/13 14:21:21;;;;;;;2.50;1.90;;;25.50;56.70;;;;;;219819;1271;23964;-53
2022/06/13 14:26:42;;;;;;;2.30;1.80;;;25.60;57.00;;;;;;220260;1271;22562;-53
2022/06/13 14:32:33;;;;;;;2.80;1.90;;;25.60;56.70;;;;;;220147;1271;25342;-54
2022/06/13 14:37:42;;;;;;;2.60;1.80;;;25.60;56.70;;;;;;219751;1271;22567;-55
2022/06/13 14:42:57;;;;;;;2.30;1.70;;;25.60;56.70;;;;;;220271;1271;22557;-54
2022/06/13 14:48:17;;;;;;;2.20;1.70;;;25.60;56.70;;;;;;220047;1271;25335;-53
2022/06/13 14:53:27;;;;;;;2.50;1.90;;;25.60;56.70;;;;;;220293;1271;22575;-53
2022/06/13 14:58:42;;;;;;;2.60;1.60;;;25.60;56.70;;;;;;219800;1270;25485;-53
2022/06/13 15:04:04;;;;;;;2.80;2.00;;;25.60;57.00;;;;;;219887;1271;24410;-53
2022/06/13 15:09:35;;;;;;;2.40;1.80;;;25.60;56.70;;;;;;220012;1270;23909;-56
2022/06/13 15:14:47;;;;;;;2.90;1.90;;;25.60;57.00;;;;;;220008;1270;24213;-57
2022/06/13 15:19:57;;;;;;;3.80;2.00;;;25.60;56.50;;;;;;220011;1270;24234;-56
2022/06/13 15:25:08;;;;;;;2.40;1.80;;;25.60;56.50;;;;;;220103;1270;23192;-54
2022/06/13 15:30:17;;;;;;;2.60;1.60;;;25.60;56.50;;;;;;220065;1270;23919;-54
2022/06/13 15:35:20;;;;;;;2.40;1.90;;;25.60;56.80;;;;;;219981;1270;25244;-54
2022/06/13 15:40:32;;;;;;;2.70;1.80;;;25.60;56.50;;;;;;220137;1270;25313;-52
2022/06/13 15:45:36;;;;;;;2.80;1.80;;;25.60;56.30;;;;;;219949;1270;22590;-54
2022/06/13 15:50:40;;;;;;;2.30;1.70;;;25.60;56.40;;;;;;219702;1271;22566;-54
2022/06/13 15:55:49;;;;;;;2.70;2.10;;;25.60;56.30;;;;;;219860;1271;23359;-53
2022/06/13 16:00:57;;;;;;;2.10;1.60;;;25.60;56.80;;;;;;220039;1270;23737;-53
2022/06/13 16:06:10;;;;;;;3.60;1.80;;;25.60;56.60;;;;;;219922;1270;24300;-53
2022/06/13 16:11:26;;;;;;;2.60;1.90;;;25.60;56.30;;;;;;219943;1271;24201;-55
2022/06/13 16:16:38;;;;;;;3.10;2.00;;;25.50;56.30;;;;;;220013;1270;26553;-54
2022/06/13 16:21:44;;;;;;;3.40;1.90;;;25.50;56.40;;;;;;219885;1271;22700;-53
2022/06/13 16:26:59;;;;;;;2.60;1.90;;;25.50;56.30;;;;;;219989;1271;25453;-52
2022/06/13 16:32:11;;;;;;;3.40;2.00;;;25.50;56.70;;;;;;220072;1270;23016;-52
2022/06/13 16:37:26;;;;;;;2.70;1.90;;;25.50;56.20;;;;;;219947;1270;22602;-57
2022/06/13 16:42:44;;;;;;;2.40;1.80;;;25.50;56.10;;;;;;219874;1271;24245;-53
2022/06/13 16:48:03;;;;;;;4.50;1.80;;;25.50;55.70;;;;;;220130;1270;25236;-55
2022/06/13 16:53:14;;;;;;;2.30;1.80;;;25.50;55.70;;;;;;220219;1271;22550;-53
2022/06/13 16:58:33;;;;;;;2.50;2.00;;;25.50;55.90;;;;;;220171;1270;24817;-56
2022/06/13 17:04:03;;;;;;;2.60;1.70;;;25.50;55.80;;;;;;219976;1270;25277;-52
2022/06/13 17:09:12;;;;;;;2.80;2.00;;;25.50;55.90;;;;;;220120;1270;25262;-53
2022/06/13 17:14:53;;;;;;;2.50;1.70;;;25.50;55.50;;;;;;219939;1270;22556;-53
2022/06/13 17:20:07;;;;;;;3.80;1.90;;;25.50;55.50;;;;;;219656;1270;23069;-57
2022/06/13 17:25:23;;;;;;;2.10;1.70;;;25.50;55.80;;;;;;220136;1270;24017;-57
2022/06/13 17:35:51;;;;;;;3.20;1.80;;;25.40;55.80;;;;;;219828;1271;25326;-55
2022/06/13 17:40:56;;;;;;;3.30;1.70;;;25.40;55.20;;;;;;220060;1270;24332;-53
2022/06/13 17:46:19;;;;;;;3.10;2.20;;;25.40;55.60;;;;;;219656;1271;24794;-54
2022/06/13 17:51:32;;;;;;;2.60;1.80;;;25.40;55.60;;;;;;219709;1271;25268;-54
2022/06/13 17:56:44;;;;;;;3.40;2.10;;;25.40;55.60;;;;;;220016;1270;24186;-55
2022/06/13 18:02:03;;;;;;;3.90;1.80;;;25.40;55.60;;;;;;220087;1270;22543;-54
2022/06/13 18:07:13;;;;;;;2.90;1.80;;;25.40;55.50;;;;;;220045;1270;24480;-55
2022/06/13 18:12:17;;;;;;;2.20;1.70;;;25.40;56.10;;;;;;220089;1270;23055;-54
2022/06/13 18:17:23;;;;;;;2.70;1.60;;;25.40;55.50;;;;;;220089;1270;22766;-54
2022/06/13 18:22:34;;;;;;;3.50;1.60;;;25.40;55.40;;;;;;220149;1270;22702;-52
2022/06/13 18:27:39;;;;;;;3.80;1.60;;;25.40;55.50;;;;;;219845;1270;22563;-54
2022/06/13 18:32:41;;;;;;;2.40;1.70;;;25.40;55.50;;;;;;219954;1270;22560;-55
2022/06/13 18:37:45;;;;;;;2.40;1.80;;;25.40;55.40;;;;;;220063;1270;24337;-53
2022/06/13 18:42:48;;;;;;;2.30;1.70;;;25.40;55.40;;;;;;219909;1270;24193;-55
2022/06/13 18:47:54;;;;;;;2.40;1.60;;;25.30;55.40;;;;;;219990;1270;22709;-51
2022/06/13 18:52:56;;;;;;;2.80;1.70;;;25.30;55.50;;;;;;219911;1270;25392;-55
2022/06/13 18:58:00;;;;;;;2.10;1.80;;;25.30;55.70;;;;;;219834;1270;22618;-54
2022/06/13 19:03:17;;;;;;;2.60;1.70;;;25.30;55.50;;;;;;219833;1270;26754;-54
2022/06/13 19:08:20;;;;;;;3.60;1.60;;;25.30;55.70;;;;;;219860;1270;23918;-52
2022/06/13 19:13:26;;;;;;;2.10;1.50;;;25.30;55.70;;;;;;220028;1271;22542;-55
2022/06/13 19:18:32;;;;;;;2.40;1.50;;;25.30;55.40;;;;;;219801;1271;24410;-55
2022/06/13 19:23:35;;;;;;;2.90;1.90;;;25.20;55.30;;;;;;219929;1271;22561;-53
2022/06/13 19:28:47;;;;;;;5.10;2.10;;;25.20;55.30;;;;;;219938;1272;25277;-54
2022/06/13 19:33:50;;;;;;;3.40;1.90;;;25.20;55.30;;;;;;220147;1271;22801;-55
2022/06/13 19:39:01;;;;;;;2.30;1.70;;;25.20;55.30;;;;;;220115;1271;24300;-53
2022/06/13 19:44:07;;;;;;;2.60;1.50;;;25.20;55.30;;;;;;220167;1271;22576;-55
2022/06/13 19:49:10;;;;;;;3.80;1.70;;;25.20;55.50;;;;;;220180;1270;25494;-55
2022/06/13 19:54:28;;;;;;;3.60;2.00;;;25.20;55.70;;;;;;220160;1271;24245;-57
2022/06/13 19:59:30;;;;;;;2.10;1.50;;;25.10;55.40;;;;;;220089;1272;22558;-56
2022/06/13 20:04:42;;;;;;;2.10;1.60;;;25.10;55.30;;;;;;220181;1270;24265;-57
2022/06/13 20:09:46;;;;;;;2.40;1.80;;;25.10;55.30;;;;;;219959;1271;24445;-55
2022/06/13 20:15:10;;;;;;;2.30;1.70;;;25.10;55.30;;;;;;220169;1270;25286;-53
2022/06/13 20:20:14;;;;;;;2.70;1.70;;;25.10;55.80;;;;;;219925;1271;25396;-53
2022/06/13 20:25:17;;;;;;;2.30;1.70;;;25.10;55.20;;;;;;220067;1271;22731;-54
2022/06/13 20:30:22;;;;;;;2.10;1.40;;;25.10;55.30;;;;;;219921;1271;24399;-53
2022/06/13 20:35:31;;;;;;;2.50;1.70;;;25.10;55.60;;;;;;220068;1270;23039;-58
2022/06/13 20:40:43;;;;;;;2.50;1.60;;;25.10;55.40;;;;;;219757;1271;25327;-57
2022/06/13 20:45:52;;;;;;;2.50;1.80;;;25.10;55.50;;;;;;219777;1271;22582;-53
2022/06/13 20:50:57;;;;;;;2.20;1.50;;;25.10;55.30;;;;;;219810;1271;22616;-55
2022/06/13 20:56:09;;;;;;;4.80;1.60;;;25.00;55.50;;;;;;219966;1271;24329;-56
2022/06/13 21:01:15;;;;;;;2.00;1.30;;;25.00;55.60;;;;;;220039;1270;22557;-53
2022/06/13 21:06:31;;;;;;;3.00;1.70;;;25.00;55.70;;;;;;220119;1270;22823;-58
2022/06/13 21:11:34;;;;;;;2.50;1.60;;;25.00;55.70;;;;;;220011;1272;22743;-55
2022/06/13 21:16:47;;;;;;;2.20;1.80;;;25.00;55.70;;;;;;220204;1270;22552;-55
2022/06/13 21:21:54;;;;;;;2.40;1.50;;;24.90;55.70;;;;;;219987;1272;22711;-56
2022/06/13 21:27:16;;;;;;;2.20;1.50;;;24.90;55.70;;;;;;219940;1270;24423;-52
2022/06/13 21:32:41;;;;;;;3.00;1.60;;;24.90;55.70;;;;;;219769;1271;22560;-53
2022/06/13 21:37:57;;;;;;;3.10;1.70;;;24.90;55.80;;;;;;219962;1270;22912;-53
2022/06/13 21:43:15;;;;;;;2.60;1.60;;;24.90;56.10;;;;;;219871;1271;24330;-53
2022/06/13 21:48:29;;;;;;;2.00;1.40;;;24.90;55.80;;;;;;220117;1270;24811;-54
2022/06/13 21:53:44;;;;;;;2.30;1.50;;;24.80;55.80;;;;;;220093;1271;24232;-54
2022/06/13 21:59:13;;;;;;;2.30;1.50;;;24.80;55.80;;;;;;220014;1273;24245;-54
2022/06/13 22:04:26;;;;;;;2.90;1.80;;;24.80;55.80;;;;;;220139;1270;24334;-53
2022/06/13 22:09:42;;;;;;;2.50;1.60;;;24.80;55.80;;;;;;220034;1272;24783;-55
2022/06/13 22:15:04;;;;;;;2.40;1.50;;;24.80;55.80;;;;;;220013;1272;24232;-54
2022/06/13 22:20:13;;;;;;;4.40;1.70;;;24.80;55.80;;;;;;219969;1270;24172;-55
2022/06/13 22:25:23;;;;;;;;;;;24.80;55.80;;;;;;219962;1271;22691;-56
2022/06/13 22:30:39;;;;;;;2.80;1.70;;;24.70;55.80;;;;;;220045;1270;24225;-55
2022/06/13 22:35:52;;;;;;;2.90;1.50;;;24.70;55.80;;;;;;219935;1273;24071;-55
2022/06/13 22:41:05;;;;;;;2.70;1.70;;;24.70;56.20;;;;;;219980;1270;24202;-56
2022/06/13 22:49:45;;;;;;;2.10;1.50;;;24.70;55.90;;;;;;220117;1271;25377;-54
2022/06/13 22:51:39;;;;;;;2.80;1.70;;;24.70;55.90;;;;;;219971;1270;24238;-54
2022/06/13 22:56:42;;;;;;;4.20;1.40;;;24.70;55.80;;;;;;219800;1273;24220;-58
2022/06/13 23:01:44;;;;;;;2.40;1.50;;;24.70;55.90;;;;;;219985;1270;24762;-57
2022/06/13 23:06:49;;;;;;;3.00;1.50;;;24.60;55.80;;;;;;219899;1271;25250;-54
2022/06/13 23:11:52;;;;;;;2.80;1.50;;;24.60;55.80;;;;;;220067;1270;25438;-54
2022/06/13 23:16:56;;;;;;;2.10;1.40;;;24.60;55.80;;;;;;220001;1270;22550;-54
2022/06/13 23:21:58;;;;;;;2.50;1.70;;;24.60;55.80;;;;;;220203;1270;24344;-54
2022/06/13 23:27:01;;;;;;;2.00;1.30;;;24.60;56.30;;;;;;219947;1271;24163;-55
2022/06/13 23:32:04;;;;;;;2.30;1.30;;;24.60;55.80;;;;;;219917;1273;22638;-51
2022/06/13 23:37:07;;;;;;;2.30;1.50;;;24.50;56.10;;;;;;220000;1270;22553;-55
2022/06/13 23:42:09;;;;;;;2.80;1.40;;;24.60;55.70;;;;;;220017;1270;22717;-56
2022/06/13 23:47:31;;;;;;;2.20;1.40;;;24.50;55.80;;;;;;219822;1273;24365;-55
2022/06/13 23:52:51;;;;;;;2.90;1.70;;;24.50;56.00;;;;;;219812;1273;22556;-56
2022/06/13 23:58:15;;;;;;;2.20;1.60;;;24.50;55.80;;;;;;220030;1270;22541;-56
